createdAt,value
2019-05-11T00:00:05.430Z,1015.2
2019-05-11T00:05:05.482Z,1015.2
2019-05-11T00:10:05.535Z,1015.2
2019-05-11T00:15:05.485Z,1015.1
2019-05-11T00:20:05.766Z,1015.1
2019-05-11T00:25:05.457Z,1015.1
2019-05-11T00:30:05.514Z,1015.2
2019-05-11T00:35:05.509Z,1015.1
2019-05-11T00:40:15.509Z,1015
2019-05-11T00:45:05.464Z,1014.9
2019-05-11T00:50:05.503Z,1015
2019-05-11T00:55:05.531Z,1015
2019-05-11T01:00:05.490Z,1015.1
2019-05-11T01:05:05.614Z,1015
2019-05-11T01:10:05.609Z,1015.1
2019-05-11T01:15:05.707Z,1015.1
2019-05-11T01:20:05.616Z,1015.1
2019-05-11T01:25:05.524Z,1015.2
2019-05-11T01:30:05.509Z,1015.2
2019-05-11T01:35:05.500Z,1015.1
2019-05-11T01:40:05.599Z,1015.2
2019-05-11T01:45:05.453Z,1015.1
2019-05-11T01:50:05.696Z,1014.8
2019-05-11T01:55:05.611Z,1014.8
2019-05-11T02:00:05.562Z,1014.7
2019-05-11T02:05:05.636Z,1014.7
2019-05-11T02:10:05.604Z,1014.7
2019-05-11T02:15:05.796Z,1014.5
2019-05-11T02:20:05.626Z,1014.5
2019-05-11T02:25:05.779Z,1014.4
2019-05-11T02:30:05.625Z,1014.4
2019-05-11T02:35:05.604Z,1014.4
2019-05-11T02:40:05.645Z,1014.3
2019-05-11T02:45:05.872Z,1014.2
2019-05-11T02:50:05.623Z,1014.3
2019-05-11T02:55:05.675Z,1014.2
2019-05-11T03:00:05.798Z,1014
2019-05-11T03:05:05.783Z,1014
2019-05-11T03:10:05.694Z,1013.9
2019-05-11T03:15:05.834Z,1013.9
2019-05-11T03:20:05.722Z,1014.1
2019-05-11T03:25:05.654Z,1014.1
2019-05-11T03:30:05.707Z,1014
2019-05-11T03:35:05.997Z,1014.1
2019-05-11T03:40:05.655Z,1014
2019-05-11T03:45:05.874Z,1013.9
2019-05-11T03:50:05.681Z,1014.1
2019-05-11T03:55:05.660Z,1014.3
2019-05-11T04:00:05.645Z,1014
2019-05-11T04:05:05.891Z,1013.8
2019-05-11T04:10:05.658Z,1013.7
2019-05-11T04:15:05.666Z,1013.8
2019-05-11T04:20:05.645Z,1014
2019-05-11T04:25:05.671Z,1013.6
2019-05-11T04:30:05.663Z,1013.7
2019-05-11T04:35:05.681Z,1013.8
2019-05-11T04:40:05.681Z,1013.9
2019-05-11T04:45:05.742Z,1013.7
2019-05-11T04:50:05.685Z,1013.6
2019-05-11T04:55:05.682Z,1013.4
2019-05-11T05:00:05.730Z,1013.3
2019-05-11T05:05:05.654Z,1013.2
2019-05-11T05:10:05.853Z,1013.3
2019-05-11T05:15:05.666Z,1013.2
2019-05-11T05:20:05.676Z,1013.1
2019-05-11T05:25:05.684Z,1013.1
2019-05-11T05:30:05.798Z,1012.9
2019-05-11T05:35:05.707Z,1012.9
2019-05-11T05:40:05.728Z,1012.7
2019-05-11T05:45:05.697Z,1012.7
2019-05-11T05:50:05.856Z,1012.6
2019-05-11T05:55:05.688Z,1012.6
2019-05-11T06:00:05.902Z,1012.5
2019-05-11T06:05:05.697Z,1012.4
2019-05-11T06:10:05.718Z,1012.2
2019-05-11T06:15:05.713Z,1012
2019-05-11T06:20:07.437Z,1012.1
2019-05-11T06:25:05.906Z,1012
2019-05-11T06:30:05.792Z,1012
2019-05-11T06:35:05.751Z,1011.7
2019-05-11T06:40:05.740Z,1011.8
2019-05-11T06:45:05.722Z,1011.8
2019-05-11T06:50:05.854Z,1011.8
2019-05-11T06:55:05.742Z,1011.8
2019-05-11T07:00:05.791Z,1011.7
2019-05-11T07:05:05.758Z,1011.7
2019-05-11T07:10:05.762Z,1011.7
2019-05-11T07:15:05.781Z,1011.6
2019-05-11T07:20:05.744Z,1011.5
2019-05-11T07:25:05.971Z,1011.4
2019-05-11T07:30:05.810Z,1011.5
2019-05-11T07:35:08.108Z,1011.4
2019-05-11T07:40:07.998Z,1011.3
2019-05-11T07:45:05.900Z,1011.4
2019-05-11T07:50:08.580Z,1011.4
2019-05-11T07:55:08.182Z,1011.4
2019-05-11T08:00:08.262Z,1011.4
2019-05-11T08:05:05.773Z,1011.4
2019-05-11T08:10:08.785Z,1011.6
2019-05-11T08:15:14.168Z,1011.6
2019-05-11T08:20:05.781Z,1011.5
2019-05-11T08:25:05.786Z,1011.6
2019-05-11T08:30:05.785Z,1011.5
2019-05-11T08:35:05.943Z,1011.5
2019-05-11T08:40:08.337Z,1011.6
2019-05-11T08:45:24.964Z,1011.6
2019-05-11T08:50:08.473Z,1011.7
2019-05-11T08:55:08.626Z,1011.9
2019-05-11T09:00:08.804Z,1012.1
2019-05-11T09:05:08.672Z,1012.1
2019-05-11T09:10:08.573Z,1012.2
2019-05-11T09:15:05.829Z,1012.4
2019-05-11T09:20:05.815Z,1012.4
2019-05-11T09:25:05.816Z,1012.5
2019-05-11T09:30:08.919Z,1012.7
2019-05-11T09:35:08.574Z,1012.6
2019-05-11T09:40:08.605Z,1012.7
2019-05-11T09:45:08.520Z,1012.7
2019-05-11T09:50:05.827Z,1012.7
2019-05-11T09:55:05.956Z,1012.7
2019-05-11T10:00:08.393Z,1012.6
2019-05-11T10:05:08.847Z,1012.5
2019-05-11T10:10:05.859Z,1012.5
2019-05-11T10:15:09.007Z,1012.6
2019-05-11T10:20:05.821Z,1012.6
2019-05-11T10:25:06.085Z,1012.5
2019-05-11T10:30:08.640Z,1012.6
2019-05-11T10:35:08.524Z,1012.5
2019-05-11T10:40:05.840Z,1012.5
2019-05-11T10:45:05.980Z,1012.5
2019-05-11T10:50:08.255Z,1012.5
2019-05-11T10:55:09.272Z,1012.4
2019-05-11T11:00:08.599Z,1012.2
2019-05-11T11:05:08.643Z,1012.2
2019-05-11T11:10:09.389Z,1012.1
2019-05-11T11:15:08.164Z,1012.1
2019-05-11T11:20:08.868Z,1012.2
2019-05-11T11:25:08.581Z,1012.1
2019-05-11T11:30:05.857Z,1012.1
2019-05-11T11:35:08.788Z,1012
2019-05-11T11:40:08.185Z,1012
2019-05-11T11:45:08.439Z,1012
2019-05-11T11:50:05.899Z,1012
2019-05-11T11:55:08.790Z,1012
2019-05-11T12:00:05.887Z,1011.9
2019-05-11T12:05:08.472Z,1011.9
2019-05-11T12:10:08.252Z,1011.7
2019-05-11T12:15:05.877Z,1011.5
2019-05-11T12:20:08.647Z,1011.4
2019-05-11T12:25:08.464Z,1011.3
2019-05-11T12:30:05.937Z,1011.2
2019-05-11T12:35:05.871Z,1011.3
2019-05-11T12:40:08.670Z,1011.3
2019-05-11T12:45:08.083Z,1011.2
2019-05-11T12:50:08.356Z,1011.2
2019-05-11T12:55:05.903Z,1011
2019-05-11T13:00:08.355Z,1010.9
2019-05-11T13:05:05.938Z,1010.8
2019-05-11T13:10:08.561Z,1010.8
2019-05-11T13:15:08.577Z,1010.8
2019-05-11T13:20:05.934Z,1010.9
2019-05-11T13:25:05.924Z,1010.8
2019-05-11T13:30:08.482Z,1010.7
2019-05-11T13:35:05.940Z,1010.7
2019-05-11T13:40:08.244Z,1010.7
2019-05-11T13:45:08.323Z,1010.8
2019-05-11T13:50:08.193Z,1010.8
2019-05-11T13:55:08.257Z,1010.8
2019-05-11T14:00:08.712Z,1010.6
2019-05-11T14:05:06.120Z,1010.6
2019-05-11T14:10:08.536Z,1010.6
2019-05-11T14:15:09.012Z,1010.5
2019-05-11T14:20:09.565Z,1010.5
2019-05-11T14:25:08.521Z,1010.7
2019-05-11T14:30:08.773Z,1010.9
2019-05-11T14:35:12.735Z,1011.7
2019-05-11T14:40:08.556Z,1012.1
2019-05-11T14:45:09.022Z,1012.3
2019-05-11T14:50:08.932Z,1012.5
2019-05-11T14:55:08.661Z,1012.7
2019-05-11T15:00:08.808Z,1012.8
2019-05-11T15:05:06.011Z,1013
2019-05-11T15:10:08.551Z,1013.2
2019-05-11T15:15:08.513Z,1013.4
2019-05-11T15:20:08.442Z,1013.6
2019-05-11T15:25:08.484Z,1013.8
2019-05-11T15:30:08.389Z,1013.8
2019-05-11T15:35:08.417Z,1014
2019-05-11T15:40:08.563Z,1014.1
2019-05-11T15:45:11.052Z,1014.4
2019-05-11T15:50:08.743Z,1014.5
2019-05-11T15:55:08.540Z,1014.2
2019-05-11T16:00:09.231Z,1014.4
2019-05-11T16:05:08.455Z,1014.9
2019-05-11T16:10:08.509Z,1015.1
2019-05-11T16:15:08.837Z,1015
2019-05-11T16:20:08.572Z,1015.2
2019-05-11T16:25:09.083Z,1015.5
2019-05-11T16:30:06.427Z,1015.7
2019-05-11T16:35:08.982Z,1016
2019-05-11T16:40:06.931Z,1016.3
2019-05-11T16:45:09.007Z,1016.6
2019-05-11T16:50:09.963Z,1016.4
2019-05-11T16:55:08.376Z,1016.3
2019-05-11T17:00:06.043Z,1016.3
2019-05-11T17:05:08.219Z,1016.2
2019-05-11T17:10:08.847Z,1016.2
2019-05-11T17:15:08.647Z,1016.2
2019-05-11T17:20:08.821Z,1016.2
2019-05-11T17:25:08.991Z,1016.2
2019-05-11T17:30:08.864Z,1016.4
2019-05-11T17:35:09.973Z,1016.5
2019-05-11T17:40:09.671Z,1016.6
2019-05-11T17:45:08.907Z,1016.6
2019-05-11T17:50:08.737Z,1016.6
2019-05-11T17:55:06.772Z,1016.7
2019-05-11T18:00:06.259Z,1016.8
2019-05-11T18:05:09.260Z,1016.9
2019-05-11T18:10:08.652Z,1017
2019-05-11T18:15:09.109Z,1017
2019-05-11T18:20:22.053Z,1017.1
2019-05-11T18:25:08.960Z,1017.2
2019-05-11T18:30:09.118Z,1017.3
2019-05-11T18:35:08.931Z,1017.4
2019-05-11T18:40:06.084Z,1017.5
2019-05-11T18:45:08.748Z,1017.5
2019-05-11T18:50:06.130Z,1017.7
2019-05-11T18:55:09.006Z,1017.8
2019-05-11T19:00:08.612Z,1017.8
2019-05-11T19:05:06.354Z,1017.9
2019-05-11T19:10:09.014Z,1017.8
2019-05-11T19:15:08.334Z,1017.9
2019-05-11T19:20:08.656Z,1017.7
2019-05-11T19:25:09.442Z,1017.9
2019-05-11T19:30:08.474Z,1017.9
2019-05-11T19:35:08.629Z,1018
2019-05-11T19:40:09.467Z,1018
2019-05-11T19:45:06.530Z,1018.2
2019-05-11T19:50:09.369Z,1018.2
2019-05-11T19:55:09.297Z,1018.3
2019-05-11T20:00:08.889Z,1018.3
2019-05-11T20:05:06.166Z,1018.2
2019-05-11T20:10:08.270Z,1018.2
2019-05-11T20:15:08.842Z,1018.3
2019-05-11T20:20:09.091Z,1018.2
2019-05-11T20:25:09.060Z,1018.2
2019-05-11T20:30:08.442Z,1018.2
2019-05-11T20:35:08.923Z,1018.2
2019-05-11T20:40:09.386Z,1018.3
2019-05-11T20:45:08.277Z,1018.2
2019-05-11T20:50:08.366Z,1018.2
2019-05-11T20:55:08.558Z,1018.3
2019-05-11T21:00:08.583Z,1018.3
2019-05-11T21:05:08.747Z,1018.4
2019-05-11T21:10:09.386Z,1018.4
2019-05-11T21:15:06.338Z,1018.4
2019-05-11T21:20:06.328Z,1018.5
2019-05-11T21:25:06.192Z,1018.6
2019-05-11T21:30:09.711Z,1018.6
2019-05-11T21:35:09.750Z,1018.6
2019-05-11T21:40:09.316Z,1018.6
2019-05-11T21:45:08.385Z,1018.6
2019-05-11T21:50:08.715Z,1018.6
2019-05-11T21:55:08.946Z,1018.5
2019-05-11T22:00:09.508Z,1018.4
2019-05-11T22:05:06.206Z,1018.4
2019-05-11T22:10:08.618Z,1018.4
2019-05-11T22:15:09.994Z,1018.4
2019-05-11T22:20:08.197Z,1018.4
2019-05-11T22:25:08.412Z,1018.4
2019-05-11T22:30:08.998Z,1018.4
2019-05-11T22:35:06.442Z,1018.5
2019-05-11T22:40:09.011Z,1018.5
2019-05-11T22:45:09.093Z,1018.6
2019-05-11T22:50:08.372Z,1018.5
2019-05-11T22:55:12.549Z,1018.5
2019-05-11T23:00:08.663Z,1018.4
2019-05-11T23:05:09.346Z,1018.5
2019-05-11T23:10:09.078Z,1018.5
2019-05-11T23:15:08.513Z,1018.5
2019-05-11T23:20:06.239Z,1018.6
2019-05-11T23:25:08.398Z,1018.6
2019-05-11T23:30:09.040Z,1018.6
2019-05-11T23:35:08.935Z,1018.6
2019-05-11T23:40:06.221Z,1018.6
2019-05-11T23:45:08.901Z,1018.5
2019-05-11T23:50:08.658Z,1018.5
2019-05-11T23:55:08.742Z,1018.5
